sensor_id;sensor_type;location;lat;lon;timestamp;P1;durP1;ratioP1;P2;durP2;ratioP2
64966;SDS011;51710;38.732;-121.358;2022-08-19T00:01:22;3.70;;;2.22;;
64966;SDS011;51710;38.732;-121.358;2022-08-19T00:03:50;4.60;;;2.40;;
64966;SDS011;51710;38.732;-121.358;2022-08-19T00:06:16;4.85;;;3.22;;
64966;SDS011;51710;38.732;-121.358;2022-08-19T00:08:43;5.03;;;3.00;;
64966;SDS011;51710;38.732;-121.358;2022-08-19T00:11:10;3.25;;;2.40;;
64966;SDS011;51710;38.732;-121.358;2022-08-19T00:13:36;6.47;;;2.75;;
64966;SDS011;51710;38.732;-121.358;2022-08-19T00:16:04;4.18;;;2.55;;
64966;SDS011;51710;38.732;-121.358;2022-08-19T00:18:32;4.00;;;2.58;;
64966;SDS011;51710;38.732;-121.358;2022-08-19T00:20:59;5.18;;;2.83;;
64966;SDS011;51710;38.732;-121.358;2022-08-19T00:23:26;5.18;;;3.05;;
64966;SDS011;51710;38.732;-121.358;2022-08-19T00:25:52;5.00;;;2.95;;
64966;SDS011;51710;38.732;-121.358;2022-08-19T00:28:19;4.68;;;2.90;;
64966;SDS011;51710;38.732;-121.358;2022-08-19T00:30:46;3.92;;;2.75;;
64966;SDS011;51710;38.732;-121.358;2022-08-19T00:33:12;3.78;;;2.80;;
64966;SDS011;51710;38.732;-121.358;2022-08-19T00:35:39;3.75;;;2.55;;
64966;SDS011;51710;38.732;-121.358;2022-08-19T00:38:05;5.63;;;2.78;;
64966;SDS011;51710;38.732;-121.358;2022-08-19T00:40:32;5.10;;;3.13;;
64966;SDS011;51710;38.732;-121.358;2022-08-19T00:42:58;7.00;;;2.78;;
64966;SDS011;51710;38.732;-121.358;2022-08-19T00:45:26;4.78;;;2.67;;
64966;SDS011;51710;38.732;-121.358;2022-08-19T00:47:55;5.30;;;2.83;;
64966;SDS011;51710;38.732;-121.358;2022-08-19T00:50:25;4.15;;;2.88;;
64966;SDS011;51710;38.732;-121.358;2022-08-19T00:52:51;4.22;;;2.85;;
64966;SDS011;51710;38.732;-121.358;2022-08-19T00:55:19;5.03;;;3.08;;
64966;SDS011;51710;38.732;-121.358;2022-08-19T00:57:50;3.40;;;2.80;;
64966;SDS011;51710;38.732;-121.358;2022-08-19T01:00:22;4.97;;;3.00;;
64966;SDS011;51710;38.732;-121.358;2022-08-19T01:02:51;5.15;;;3.05;;
64966;SDS011;51710;38.732;-121.358;2022-08-19T01:05:22;5.60;;;3.45;;
64966;SDS011;51710;38.732;-121.358;2022-08-19T01:07:56;5.20;;;3.28;;
64966;SDS011;51710;38.732;-121.358;2022-08-19T01:10:25;3.92;;;2.78;;
64966;SDS011;51710;38.732;-121.358;2022-08-19T01:12:54;8.75;;;2.92;;
64966;SDS011;51710;38.732;-121.358;2022-08-19T01:15:25;6.38;;;3.70;;
64966;SDS011;51710;38.732;-121.358;2022-08-19T01:17:55;5.63;;;2.92;;
64966;SDS011;51710;38.732;-121.358;2022-08-19T01:20:25;5.15;;;3.05;;
64966;SDS011;51710;38.732;-121.358;2022-08-19T01:22:53;4.03;;;2.92;;
64966;SDS011;51710;38.732;-121.358;2022-08-19T01:25:22;6.28;;;3.05;;
64966;SDS011;51710;38.732;-121.358;2022-08-19T01:27:53;5.43;;;2.83;;
64966;SDS011;51710;38.732;-121.358;2022-08-19T01:30:21;4.78;;;2.92;;
64966;SDS011;51710;38.732;-121.358;2022-08-19T01:32:51;5.80;;;2.75;;
64966;SDS011;51710;38.732;-121.358;2022-08-19T01:35:19;5.30;;;2.53;;
64966;SDS011;51710;38.732;-121.358;2022-08-19T01:38:03;6.03;;;2.97;;
64966;SDS011;51710;38.732;-121.358;2022-08-19T01:40:33;4.93;;;3.05;;
64966;SDS011;51710;38.732;-121.358;2022-08-19T01:43:02;4.50;;;2.80;;
64966;SDS011;51710;38.732;-121.358;2022-08-19T01:45:30;5.38;;;2.60;;
64966;SDS011;51710;38.732;-121.358;2022-08-19T01:47:59;5.47;;;2.88;;
64966;SDS011;51710;38.732;-121.358;2022-08-19T01:50:26;5.93;;;2.90;;
64966;SDS011;51710;38.732;-121.358;2022-08-19T01:52:52;6.18;;;2.80;;
64966;SDS011;51710;38.732;-121.358;2022-08-19T01:55:20;4.85;;;2.60;;
64966;SDS011;51710;38.732;-121.358;2022-08-19T01:57:50;4.60;;;2.53;;
64966;SDS011;51710;38.732;-121.358;2022-08-19T02:00:20;4.53;;;2.30;;
64966;SDS011;51710;38.732;-121.358;2022-08-19T02:02:48;4.63;;;2.42;;
64966;SDS011;51710;38.732;-121.358;2022-08-19T02:05:15;4.18;;;2.40;;
64966;SDS011;51710;38.732;-121.358;2022-08-19T02:07:44;3.67;;;2.33;;
64966;SDS011;51710;38.732;-121.358;2022-08-19T02:10:13;4.28;;;2.28;;
64966;SDS011;51710;38.732;-121.358;2022-08-19T02:12:43;3.30;;;2.20;;
64966;SDS011;51710;38.732;-121.358;2022-08-19T02:15:09;4.80;;;2.53;;
64966;SDS011;51710;38.732;-121.358;2022-08-19T02:17:37;3.70;;;2.33;;
64966;SDS011;51710;38.732;-121.358;2022-08-19T02:20:03;7.85;;;3.03;;
64966;SDS011;51710;38.732;-121.358;2022-08-19T02:22:31;4.80;;;2.60;;
64966;SDS011;51710;38.732;-121.358;2022-08-19T02:24:58;5.10;;;2.78;;
64966;SDS011;51710;38.732;-121.358;2022-08-19T02:27:25;5.25;;;2.90;;
64966;SDS011;51710;38.732;-121.358;2022-08-19T02:29:51;5.25;;;2.60;;
64966;SDS011;51710;38.732;-121.358;2022-08-19T02:32:18;4.85;;;2.53;;
64966;SDS011;51710;38.732;-121.358;2022-08-19T02:34:45;5.88;;;3.25;;
64966;SDS011;51710;38.732;-121.358;2022-08-19T02:37:12;8.88;;;2.88;;
64966;SDS011;51710;38.732;-121.358;2022-08-19T02:39:58;6.75;;;3.10;;
64966;SDS011;51710;38.732;-121.358;2022-08-19T02:42:24;4.55;;;3.03;;
64966;SDS011;51710;38.732;-121.358;2022-08-19T02:44:51;4.25;;;3.30;;
64966;SDS011;51710;38.732;-121.358;2022-08-19T02:47:18;4.47;;;3.15;;
64966;SDS011;51710;38.732;-121.358;2022-08-19T02:49:45;6.10;;;3.20;;
64966;SDS011;51710;38.732;-121.358;2022-08-19T02:52:15;8.18;;;3.40;;
64966;SDS011;51710;38.732;-121.358;2022-08-19T02:54:42;6.25;;;3.42;;
64966;SDS011;51710;38.732;-121.358;2022-08-19T02:57:09;5.72;;;2.72;;
64966;SDS011;51710;38.732;-121.358;2022-08-19T02:59:35;6.72;;;3.30;;
64966;SDS011;51710;38.732;-121.358;2022-08-19T03:02:02;4.80;;;3.25;;
64966;SDS011;51710;38.732;-121.358;2022-08-19T03:04:29;5.95;;;3.50;;
64966;SDS011;51710;38.732;-121.358;2022-08-19T03:06:55;5.88;;;3.40;;
64966;SDS011;51710;38.732;-121.358;2022-08-19T03:09:22;4.72;;;3.10;;
64966;SDS011;51710;38.732;-121.358;2022-08-19T03:11:48;6.28;;;3.60;;
64966;SDS011;51710;38.732;-121.358;2022-08-19T03:14:15;4.88;;;3.75;;
64966;SDS011;51710;38.732;-121.358;2022-08-19T03:16:44;8.30;;;3.63;;
64966;SDS011;51710;38.732;-121.358;2022-08-19T03:19:15;8.07;;;4.10;;
64966;SDS011;51710;38.732;-121.358;2022-08-19T03:21:43;5.03;;;3.70;;
64966;SDS011;51710;38.732;-121.358;2022-08-19T03:24:10;6.18;;;3.58;;
64966;SDS011;51710;38.732;-121.358;2022-08-19T03:26:39;7.57;;;3.78;;
64966;SDS011;51710;38.732;-121.358;2022-08-19T03:29:07;5.60;;;3.80;;
64966;SDS011;51710;38.732;-121.358;2022-08-19T03:31:35;7.20;;;3.70;;
64966;SDS011;51710;38.732;-121.358;2022-08-19T03:34:03;7.88;;;4.22;;
64966;SDS011;51710;38.732;-121.358;2022-08-19T03:36:29;7.30;;;3.53;;
64966;SDS011;51710;38.732;-121.358;2022-08-19T03:38:57;8.45;;;3.63;;
64966;SDS011;51710;38.732;-121.358;2022-08-19T03:41:27;6.55;;;3.33;;
64966;SDS011;51710;38.732;-121.358;2022-08-19T03:43:58;5.80;;;3.38;;
64966;SDS011;51710;38.732;-121.358;2022-08-19T03:46:27;5.68;;;3.40;;
64966;SDS011;51710;38.732;-121.358;2022-08-19T03:48:56;4.88;;;3.28;;
64966;SDS011;51710;38.732;-121.358;2022-08-19T03:51:25;6.47;;;3.45;;
64966;SDS011;51710;38.732;-121.358;2022-08-19T03:53:56;5.55;;;3.42;;
64966;SDS011;51710;38.732;-121.358;2022-08-19T03:56:24;5.88;;;3.70;;
64966;SDS011;51710;38.732;-121.358;2022-08-19T03:58:51;6.20;;;3.70;;
64966;SDS011;51710;38.732;-121.358;2022-08-19T04:01:18;5.93;;;3.67;;
64966;SDS011;51710;38.732;-121.358;2022-08-19T04:03:47;6.78;;;3.33;;
64966;SDS011;51710;38.732;-121.358;2022-08-19T04:06:16;5.38;;;3.25;;
64966;SDS011;51710;38.732;-121.358;2022-08-19T04:08:47;5.13;;;3.30;;
64966;SDS011;51710;38.732;-121.358;2022-08-19T04:11:17;8.70;;;2.92;;
64966;SDS011;51710;38.732;-121.358;2022-08-19T04:13:48;6.55;;;3.35;;
64966;SDS011;51710;38.732;-121.358;2022-08-19T04:16:17;5.85;;;3.95;;
64966;SDS011;51710;38.732;-121.358;2022-08-19T04:18:45;6.30;;;3.47;;
64966;SDS011;51710;38.732;-121.358;2022-08-19T04:21:20;4.15;;;3.03;;
64966;SDS011;51710;38.732;-121.358;2022-08-19T04:23:48;4.65;;;3.33;;
64966;SDS011;51710;38.732;-121.358;2022-08-19T04:26:16;6.97;;;3.65;;
64966;SDS011;51710;38.732;-121.358;2022-08-19T04:28:45;5.05;;;3.75;;
64966;SDS011;51710;38.732;-121.358;2022-08-19T04:31:16;6.68;;;3.70;;
64966;SDS011;51710;38.732;-121.358;2022-08-19T04:33:44;6.78;;;3.47;;
64966;SDS011;51710;38.732;-121.358;2022-08-19T04:36:17;6.07;;;2.97;;
64966;SDS011;51710;38.732;-121.358;2022-08-19T04:38:46;5.70;;;3.38;;
64966;SDS011;51710;38.732;-121.358;2022-08-19T04:41:13;8.75;;;3.45;;
64966;SDS011;51710;38.732;-121.358;2022-08-19T04:43:59;8.30;;;3.45;;
64966;SDS011;51710;38.732;-121.358;2022-08-19T04:46:28;6.30;;;3.10;;
64966;SDS011;51710;38.732;-121.358;2022-08-19T04:48:56;6.03;;;3.83;;
64966;SDS011;51710;38.732;-121.358;2022-08-19T04:51:23;6.82;;;3.42;;
64966;SDS011;51710;38.732;-121.358;2022-08-19T04:53:50;7.60;;;3.58;;
64966;SDS011;51710;38.732;-121.358;2022-08-19T04:56:18;8.10;;;3.88;;
64966;SDS011;51710;38.732;-121.358;2022-08-19T04:58:48;6.28;;;3.15;;
64966;SDS011;51710;38.732;-121.358;2022-08-19T05:01:19;8.40;;;3.40;;
64966;SDS011;51710;38.732;-121.358;2022-08-19T05:03:47;6.55;;;3.30;;
64966;SDS011;51710;38.732;-121.358;2022-08-19T05:06:14;8.07;;;3.33;;
64966;SDS011;51710;38.732;-121.358;2022-08-19T05:08:42;5.32;;;3.20;;
64966;SDS011;51710;38.732;-121.358;2022-08-19T05:11:11;5.47;;;3.55;;
64966;SDS011;51710;38.732;-121.358;2022-08-19T05:13:40;4.85;;;3.17;;
64966;SDS011;51710;38.732;-121.358;2022-08-19T05:16:08;6.47;;;3.72;;
64966;SDS011;51710;38.732;-121.358;2022-08-19T05:18:37;6.05;;;3.58;;
64966;SDS011;51710;38.732;-121.358;2022-08-19T05:21:23;5.68;;;3.38;;
64966;SDS011;51710;38.732;-121.358;2022-08-19T05:24:08;8.65;;;3.03;;
64966;SDS011;51710;38.732;-121.358;2022-08-19T05:26:36;6.57;;;3.20;;
64966;SDS011;51710;38.732;-121.358;2022-08-19T05:29:03;5.20;;;3.40;;
64966;SDS011;51710;38.732;-121.358;2022-08-19T05:31:31;5.97;;;3.35;;
64966;SDS011;51710;38.732;-121.358;2022-08-19T05:33:57;7.20;;;3.55;;
64966;SDS011;51710;38.732;-121.358;2022-08-19T05:36:25;5.38;;;3.17;;
64966;SDS011;51710;38.732;-121.358;2022-08-19T05:38:53;6.22;;;3.05;;
64966;SDS011;51710;38.732;-121.358;2022-08-19T05:41:20;6.43;;;3.10;;
64966;SDS011;51710;38.732;-121.358;2022-08-19T05:44:00;5.68;;;3.10;;
64966;SDS011;51710;38.732;-121.358;2022-08-19T05:46:31;5.32;;;3.53;;
64966;SDS011;51710;38.732;-121.358;2022-08-19T05:48:57;5.72;;;3.20;;
64966;SDS011;51710;38.732;-121.358;2022-08-19T05:51:24;7.78;;;4.00;;
64966;SDS011;51710;38.732;-121.358;2022-08-19T05:53:50;7.95;;;3.38;;
64966;SDS011;51710;38.732;-121.358;2022-08-19T05:56:17;4.72;;;2.90;;
64966;SDS011;51710;38.732;-121.358;2022-08-19T05:58:45;6.80;;;3.47;;
64966;SDS011;51710;38.732;-121.358;2022-08-19T06:01:12;4.97;;;2.92;;
64966;SDS011;51710;38.732;-121.358;2022-08-19T06:03:41;4.60;;;3.00;;
64966;SDS011;51710;38.732;-121.358;2022-08-19T06:06:09;4.43;;;2.90;;
64966;SDS011;51710;38.732;-121.358;2022-08-19T06:08:37;5.55;;;3.90;;
64966;SDS011;51710;38.732;-121.358;2022-08-19T06:11:15;6.35;;;3.42;;
64966;SDS011;51710;38.732;-121.358;2022-08-19T06:13:44;7.57;;;3.83;;
64966;SDS011;51710;38.732;-121.358;2022-08-19T06:16:13;4.88;;;3.00;;
64966;SDS011;51710;38.732;-121.358;2022-08-19T06:18:51;5.40;;;3.25;;
64966;SDS011;51710;38.732;-121.358;2022-08-19T06:21:19;5.43;;;3.30;;
64966;SDS011;51710;38.732;-121.358;2022-08-19T06:23:47;6.03;;;3.35;;
64966;SDS011;51710;38.732;-121.358;2022-08-19T06:26:15;6.45;;;3.30;;
64966;SDS011;51710;38.732;-121.358;2022-08-19T06:28:42;5.97;;;3.83;;
64966;SDS011;51710;38.732;-121.358;2022-08-19T06:31:25;5.80;;;3.20;;
64966;SDS011;51710;38.732;-121.358;2022-08-19T06:33:53;5.35;;;3.45;;
64966;SDS011;51710;38.732;-121.358;2022-08-19T06:36:20;5.03;;;3.30;;
64966;SDS011;51710;38.732;-121.358;2022-08-19T06:38:57;5.93;;;3.33;;
64966;SDS011;51710;38.732;-121.358;2022-08-19T06:41:27;5.85;;;2.97;;
64966;SDS011;51710;38.732;-121.358;2022-08-19T06:43:55;5.78;;;3.08;;
64966;SDS011;51710;38.732;-121.358;2022-08-19T06:46:22;5.32;;;3.05;;
64966;SDS011;51710;38.732;-121.358;2022-08-19T06:48:49;5.88;;;2.90;;
64966;SDS011;51710;38.732;-121.358;2022-08-19T06:51:18;5.18;;;3.03;;
64966;SDS011;51710;38.732;-121.358;2022-08-19T06:53:49;5.18;;;2.95;;
64966;SDS011;51710;38.732;-121.358;2022-08-19T06:56:18;4.70;;;3.17;;
64966;SDS011;51710;38.732;-121.358;2022-08-19T06:58:47;6.28;;;3.25;;
64966;SDS011;51710;38.732;-121.358;2022-08-19T07:01:17;6.72;;;3.13;;
64966;SDS011;51710;38.732;-121.358;2022-08-19T07:03:43;5.72;;;3.03;;
64966;SDS011;51710;38.732;-121.358;2022-08-19T07:06:13;5.95;;;3.75;;
64966;SDS011;51710;38.732;-121.358;2022-08-19T07:08:43;6.00;;;3.53;;
64966;SDS011;51710;38.732;-121.358;2022-08-19T07:11:12;7.53;;;3.22;;
64966;SDS011;51710;38.732;-121.358;2022-08-19T07:13:40;6.15;;;3.15;;
64966;SDS011;51710;38.732;-121.358;2022-08-19T07:16:13;5.90;;;3.58;;
64966;SDS011;51710;38.732;-121.358;2022-08-19T07:18:42;5.38;;;3.33;;
64966;SDS011;51710;38.732;-121.358;2022-08-19T07:21:11;5.93;;;3.28;;
64966;SDS011;51710;38.732;-121.358;2022-08-19T07:23:46;5.82;;;3.00;;
64966;SDS011;51710;38.732;-121.358;2022-08-19T07:26:21;6.47;;;3.28;;
64966;SDS011;51710;38.732;-121.358;2022-08-19T07:28:50;4.93;;;3.30;;
64966;SDS011;51710;38.732;-121.358;2022-08-19T07:31:17;5.70;;;3.53;;
64966;SDS011;51710;38.732;-121.358;2022-08-19T07:33:48;6.38;;;2.90;;
64966;SDS011;51710;38.732;-121.358;2022-08-19T07:36:17;5.32;;;3.30;;
64966;SDS011;51710;38.732;-121.358;2022-08-19T07:38:51;5.85;;;3.28;;
64966;SDS011;51710;38.732;-121.358;2022-08-19T07:41:21;4.90;;;3.20;;
64966;SDS011;51710;38.732;-121.358;2022-08-19T07:43:50;6.05;;;3.40;;
64966;SDS011;51710;38.732;-121.358;2022-08-19T07:46:18;6.50;;;3.47;;
64966;SDS011;51710;38.732;-121.358;2022-08-19T07:48:47;6.63;;;3.90;;
64966;SDS011;51710;38.732;-121.358;2022-08-19T07:51:17;5.43;;;3.25;;
64966;SDS011;51710;38.732;-121.358;2022-08-19T07:53:47;7.15;;;3.40;;
64966;SDS011;51710;38.732;-121.358;2022-08-19T07:56:17;5.15;;;3.33;;
64966;SDS011;51710;38.732;-121.358;2022-08-19T07:58:46;6.45;;;3.45;;
64966;SDS011;51710;38.732;-121.358;2022-08-19T08:01:15;5.47;;;3.38;;
64966;SDS011;51710;38.732;-121.358;2022-08-19T08:03:45;5.25;;;3.10;;
64966;SDS011;51710;38.732;-121.358;2022-08-19T08:06:30;4.88;;;2.85;;
64966;SDS011;51710;38.732;-121.358;2022-08-19T08:09:16;5.63;;;2.90;;
64966;SDS011;51710;38.732;-121.358;2022-08-19T08:14:21;5.95;;;3.30;;
64966;SDS011;51710;38.732;-121.358;2022-08-19T08:16:51;5.50;;;3.05;;
64966;SDS011;51710;38.732;-121.358;2022-08-19T08:19:19;5.55;;;3.15;;
64966;SDS011;51710;38.732;-121.358;2022-08-19T08:21:48;5.15;;;2.95;;
64966;SDS011;51710;38.732;-121.358;2022-08-19T08:24:17;4.60;;;3.10;;
64966;SDS011;51710;38.732;-121.358;2022-08-19T08:26:45;5.47;;;3.00;;
64966;SDS011;51710;38.732;-121.358;2022-08-19T08:29:13;5.88;;;3.20;;
64966;SDS011;51710;38.732;-121.358;2022-08-19T08:31:42;6.70;;;3.28;;
64966;SDS011;51710;38.732;-121.358;2022-08-19T08:34:11;6.85;;;3.63;;
64966;SDS011;51710;38.732;-121.358;2022-08-19T08:36:39;5.82;;;3.15;;
64966;SDS011;51710;38.732;-121.358;2022-08-19T08:39:11;5.43;;;3.20;;
64966;SDS011;51710;38.732;-121.358;2022-08-19T08:42:27;5.55;;;3.08;;
64966;SDS011;51710;38.732;-121.358;2022-08-19T08:44:53;7.80;;;3.08;;
64966;SDS011;51710;38.732;-121.358;2022-08-19T08:47:31;4.72;;;2.78;;
64966;SDS011;51710;38.732;-121.358;2022-08-19T08:50:06;5.88;;;3.35;;
64966;SDS011;51710;38.732;-121.358;2022-08-19T08:52:42;5.38;;;3.35;;
64966;SDS011;51710;38.732;-121.358;2022-08-19T08:55:17;5.60;;;2.72;;
64966;SDS011;51710;38.732;-121.358;2022-08-19T09:00:39;6.20;;;3.03;;
64966;SDS011;51710;38.732;-121.358;2022-08-19T09:03:19;5.97;;;3.25;;
64966;SDS011;51710;38.732;-121.358;2022-08-19T09:11:03;6.40;;;3.20;;
64966;SDS011;51710;38.732;-121.358;2022-08-19T09:16:29;5.88;;;3.00;;
64966;SDS011;51710;38.732;-121.358;2022-08-19T09:18:58;5.20;;;3.20;;
64966;SDS011;51710;38.732;-121.358;2022-08-19T09:21:29;5.55;;;3.00;;
64966;SDS011;51710;38.732;-121.358;2022-08-19T09:23:56;4.97;;;3.05;;
64966;SDS011;51710;38.732;-121.358;2022-08-19T09:26:24;5.28;;;2.80;;
64966;SDS011;51710;38.732;-121.358;2022-08-19T09:28:52;7.13;;;3.20;;
64966;SDS011;51710;38.732;-121.358;2022-08-19T09:31:24;6.93;;;3.50;;
64966;SDS011;51710;38.732;-121.358;2022-08-19T09:33:53;6.27;;;3.07;;
64966;SDS011;51710;38.732;-121.358;2022-08-19T09:36:24;5.20;;;3.05;;
64966;SDS011;51710;38.732;-121.358;2022-08-19T09:38:54;5.55;;;3.00;;
64966;SDS011;51710;38.732;-121.358;2022-08-19T09:41:23;4.82;;;3.10;;
64966;SDS011;51710;38.732;-121.358;2022-08-19T09:43:51;5.68;;;2.97;;
64966;SDS011;51710;38.732;-121.358;2022-08-19T09:46:24;5.47;;;3.15;;
64966;SDS011;51710;38.732;-121.358;2022-08-19T09:48:57;6.57;;;3.10;;
64966;SDS011;51710;38.732;-121.358;2022-08-19T09:51:25;6.55;;;3.38;;
64966;SDS011;51710;38.732;-121.358;2022-08-19T09:53:58;6.50;;;3.58;;
64966;SDS011;51710;38.732;-121.358;2022-08-19T09:56:27;6.47;;;3.45;;
64966;SDS011;51710;38.732;-121.358;2022-08-19T09:58:57;6.72;;;3.30;;
64966;SDS011;51710;38.732;-121.358;2022-08-19T10:01:26;4.93;;;3.20;;
64966;SDS011;51710;38.732;-121.358;2022-08-19T10:03:56;5.90;;;3.20;;
64966;SDS011;51710;38.732;-121.358;2022-08-19T10:06:28;5.78;;;3.15;;
64966;SDS011;51710;38.732;-121.358;2022-08-19T10:08:59;4.30;;;2.83;;
64966;SDS011;51710;38.732;-121.358;2022-08-19T10:11:29;5.20;;;3.05;;
64966;SDS011;51710;38.732;-121.358;2022-08-19T10:13:56;6.18;;;3.42;;
64966;SDS011;51710;38.732;-121.358;2022-08-19T10:16:23;6.05;;;2.83;;
64966;SDS011;51710;38.732;-121.358;2022-08-19T10:18:50;5.63;;;3.05;;
64966;SDS011;51710;38.732;-121.358;2022-08-19T10:21:23;5.40;;;3.35;;
64966;SDS011;51710;38.732;-121.358;2022-08-19T10:23:54;5.47;;;2.88;;
64966;SDS011;51710;38.732;-121.358;2022-08-19T10:26:33;4.97;;;3.03;;
64966;SDS011;51710;38.732;-121.358;2022-08-19T10:29:02;7.18;;;3.30;;
64966;SDS011;51710;38.732;-121.358;2022-08-19T10:31:31;5.82;;;3.03;;
64966;SDS011;51710;38.732;-121.358;2022-08-19T10:33:59;5.72;;;2.85;;
64966;SDS011;51710;38.732;-121.358;2022-08-19T10:36:29;6.63;;;3.28;;
64966;SDS011;51710;38.732;-121.358;2022-08-19T10:38:59;5.65;;;3.40;;
64966;SDS011;51710;38.732;-121.358;2022-08-19T10:41:28;4.50;;;2.63;;
64966;SDS011;51710;38.732;-121.358;2022-08-19T10:43:58;5.95;;;3.10;;
64966;SDS011;51710;38.732;-121.358;2022-08-19T10:46:27;6.60;;;3.05;;
64966;SDS011;51710;38.732;-121.358;2022-08-19T10:48:58;4.50;;;2.95;;
64966;SDS011;51710;38.732;-121.358;2022-08-19T10:51:28;6.07;;;3.00;;
64966;SDS011;51710;38.732;-121.358;2022-08-19T10:54:13;5.38;;;2.80;;
64966;SDS011;51710;38.732;-121.358;2022-08-19T10:56:41;4.50;;;2.67;;
64966;SDS011;51710;38.732;-121.358;2022-08-19T10:59:18;4.90;;;2.85;;
64966;SDS011;51710;38.732;-121.358;2022-08-19T11:01:51;5.97;;;3.00;;
64966;SDS011;51710;38.732;-121.358;2022-08-19T11:04:21;4.30;;;2.90;;
64966;SDS011;51710;38.732;-121.358;2022-08-19T11:09:23;5.63;;;3.13;;
64966;SDS011;51710;38.732;-121.358;2022-08-19T11:12:38;6.13;;;2.88;;
64966;SDS011;51710;38.732;-121.358;2022-08-19T11:14:56;5.95;;;2.92;;
64966;SDS011;51710;38.732;-121.358;2022-08-19T11:17:23;4.28;;;2.80;;
64966;SDS011;51710;38.732;-121.358;2022-08-19T11:19:50;5.70;;;2.70;;
64966;SDS011;51710;38.732;-121.358;2022-08-19T11:22:18;5.18;;;2.95;;
64966;SDS011;51710;38.732;-121.358;2022-08-19T11:24:45;4.60;;;2.80;;
64966;SDS011;51710;38.732;-121.358;2022-08-19T11:27:16;6.97;;;3.38;;
64966;SDS011;51710;38.732;-121.358;2022-08-19T11:29:47;6.15;;;3.45;;
64966;SDS011;51710;38.732;-121.358;2022-08-19T11:32:14;5.20;;;3.17;;
64966;SDS011;51710;38.732;-121.358;2022-08-19T11:34:41;6.50;;;3.63;;
64966;SDS011;51710;38.732;-121.358;2022-08-19T11:37:09;6.43;;;2.92;;
64966;SDS011;51710;38.732;-121.358;2022-08-19T11:40:06;5.18;;;2.90;;
64966;SDS011;51710;38.732;-121.358;2022-08-19T11:42:33;5.78;;;3.25;;
64966;SDS011;51710;38.732;-121.358;2022-08-19T11:45:18;6.57;;;3.38;;
64966;SDS011;51710;38.732;-121.358;2022-08-19T11:47:45;7.28;;;3.25;;
64966;SDS011;51710;38.732;-121.358;2022-08-19T11:50:18;7.32;;;2.97;;
64966;SDS011;51710;38.732;-121.358;2022-08-19T11:52:48;5.65;;;2.65;;
64966;SDS011;51710;38.732;-121.358;2022-08-19T11:55:16;12.18;;;3.30;;
64966;SDS011;51710;38.732;-121.358;2022-08-19T11:57:45;7.40;;;3.17;;
64966;SDS011;51710;38.732;-121.358;2022-08-19T12:00:16;5.60;;;2.80;;
64966;SDS011;51710;38.732;-121.358;2022-08-19T12:02:47;5.40;;;2.92;;
64966;SDS011;51710;38.732;-121.358;2022-08-19T12:05:23;5.32;;;2.88;;
64966;SDS011;51710;38.732;-121.358;2022-08-19T12:08:09;6.13;;;2.58;;
64966;SDS011;51710;38.732;-121.358;2022-08-19T12:10:45;5.88;;;3.33;;
64966;SDS011;51710;38.732;-121.358;2022-08-19T12:13:22;5.95;;;3.30;;
64966;SDS011;51710;38.732;-121.358;2022-08-19T12:15:54;6.00;;;3.10;;
64966;SDS011;51710;38.732;-121.358;2022-08-19T12:18:27;5.07;;;2.88;;
64966;SDS011;51710;38.732;-121.358;2022-08-19T12:20:53;5.63;;;3.38;;
64966;SDS011;51710;38.732;-121.358;2022-08-19T12:23:28;5.70;;;2.47;;
64966;SDS011;51710;38.732;-121.358;2022-08-19T12:25:56;6.47;;;2.65;;
64966;SDS011;51710;38.732;-121.358;2022-08-19T12:28:28;5.25;;;3.03;;
64966;SDS011;51710;38.732;-121.358;2022-08-19T12:30:56;4.82;;;3.00;;
64966;SDS011;51710;38.732;-121.358;2022-08-19T12:33:38;6.43;;;3.15;;
64966;SDS011;51710;38.732;-121.358;2022-08-19T12:36:09;6.63;;;3.10;;
64966;SDS011;51710;38.732;-121.358;2022-08-19T12:38:47;5.13;;;3.05;;
64966;SDS011;51710;38.732;-121.358;2022-08-19T12:41:19;7.45;;;3.15;;
64966;SDS011;51710;38.732;-121.358;2022-08-19T12:43:48;7.82;;;3.25;;
64966;SDS011;51710;38.732;-121.358;2022-08-19T12:46:19;6.45;;;3.42;;
64966;SDS011;51710;38.732;-121.358;2022-08-19T12:48:47;7.03;;;2.92;;
64966;SDS011;51710;38.732;-121.358;2022-08-19T12:51:16;5.25;;;2.95;;
64966;SDS011;51710;38.732;-121.358;2022-08-19T12:53:45;6.03;;;3.00;;
64966;SDS011;51710;38.732;-121.358;2022-08-19T12:56:15;6.57;;;2.88;;
64966;SDS011;51710;38.732;-121.358;2022-08-19T12:58:42;4.30;;;2.60;;
64966;SDS011;51710;38.732;-121.358;2022-08-19T13:01:13;5.03;;;2.65;;
64966;SDS011;51710;38.732;-121.358;2022-08-19T13:03:44;5.45;;;2.80;;
64966;SDS011;51710;38.732;-121.358;2022-08-19T13:06:13;5.90;;;3.10;;
64966;SDS011;51710;38.732;-121.358;2022-08-19T13:08:41;6.25;;;2.80;;
64966;SDS011;51710;38.732;-121.358;2022-08-19T13:11:12;4.65;;;2.67;;
64966;SDS011;51710;38.732;-121.358;2022-08-19T13:13:45;4.85;;;2.88;;
64966;SDS011;51710;38.732;-121.358;2022-08-19T13:16:14;4.55;;;2.50;;
64966;SDS011;51710;38.732;-121.358;2022-08-19T13:18:41;4.20;;;2.40;;
64966;SDS011;51710;38.732;-121.358;2022-08-19T13:21:10;5.30;;;2.60;;
64966;SDS011;51710;38.732;-121.358;2022-08-19T13:23:39;5.90;;;2.20;;
64966;SDS011;51710;38.732;-121.358;2022-08-19T13:26:10;7.50;;;2.90;;
64966;SDS011;51710;38.732;-121.358;2022-08-19T13:28:43;5.45;;;3.03;;
64966;SDS011;51710;38.732;-121.358;2022-08-19T13:31:32;5.40;;;2.58;;
64966;SDS011;51710;38.732;-121.358;2022-08-19T13:34:19;3.75;;;2.60;;
64966;SDS011;51710;38.732;-121.358;2022-08-19T13:36:51;5.85;;;2.95;;
64966;SDS011;51710;38.732;-121.358;2022-08-19T13:39:19;5.90;;;3.40;;
64966;SDS011;51710;38.732;-121.358;2022-08-19T13:41:48;5.85;;;2.67;;
64966;SDS011;51710;38.732;-121.358;2022-08-19T13:44:16;6.20;;;2.80;;
64966;SDS011;51710;38.732;-121.358;2022-08-19T13:46:46;4.30;;;2.65;;
64966;SDS011;51710;38.732;-121.358;2022-08-19T13:49:16;4.70;;;2.40;;
64966;SDS011;51710;38.732;-121.358;2022-08-19T13:51:43;5.15;;;2.50;;
64966;SDS011;51710;38.732;-121.358;2022-08-19T13:54:10;6.07;;;2.83;;
64966;SDS011;51710;38.732;-121.358;2022-08-19T13:56:46;5.07;;;2.78;;
64966;SDS011;51710;38.732;-121.358;2022-08-19T13:59:13;5.65;;;2.65;;
64966;SDS011;51710;38.732;-121.358;2022-08-19T14:01:40;4.70;;;2.40;;
64966;SDS011;51710;38.732;-121.358;2022-08-19T14:04:07;4.30;;;2.70;;
64966;SDS011;51710;38.732;-121.358;2022-08-19T14:06:34;4.13;;;2.70;;
64966;SDS011;51710;38.732;-121.358;2022-08-19T14:09:00;5.60;;;2.67;;
64966;SDS011;51710;38.732;-121.358;2022-08-19T14:11:28;5.40;;;2.70;;
64966;SDS011;51710;38.732;-121.358;2022-08-19T14:13:55;5.07;;;2.95;;
64966;SDS011;51710;38.732;-121.358;2022-08-19T14:16:21;5.00;;;2.35;;
64966;SDS011;51710;38.732;-121.358;2022-08-19T14:18:47;3.60;;;2.00;;
64966;SDS011;51710;38.732;-121.358;2022-08-19T14:21:18;4.18;;;2.42;;
64966;SDS011;51710;38.732;-121.358;2022-08-19T14:23:49;5.28;;;2.67;;
64966;SDS011;51710;38.732;-121.358;2022-08-19T14:26:16;5.97;;;2.47;;
64966;SDS011;51710;38.732;-121.358;2022-08-19T14:28:44;4.15;;;2.60;;
64966;SDS011;51710;38.732;-121.358;2022-08-19T14:31:12;4.95;;;2.50;;
64966;SDS011;51710;38.732;-121.358;2022-08-19T14:33:41;6.95;;;2.90;;
64966;SDS011;51710;38.732;-121.358;2022-08-19T14:36:08;5.78;;;2.55;;
64966;SDS011;51710;38.732;-121.358;2022-08-19T14:38:34;4.40;;;2.35;;
64966;SDS011;51710;38.732;-121.358;2022-08-19T14:43:45;6.82;;;2.65;;